Time;durP1;ratioP1;P1;durP2;ratioP2;P2;SDS_P1;SDS_P2;PMS_P1;PMS_P2;Temp;Humidity;BMP_temperature;BMP_pressure;BME280_temperature;BME280_humidity;BME280_pressure;Samples;Min_cycle;Max_cycle;Signal;HPM_P1;HPM_P2
2022/10/29 00:01:02;;;;;;;10.65;6.93;;;17.60;84.20;;;;;;5064156;28;20427;-75
2022/10/29 00:03:30;;;;;;;11.98;7.07;;;17.70;84.30;;;;;;5059363;28;20753;-76
2022/10/29 00:06:01;;;;;;;8.70;6.30;;;17.70;84.40;;;;;;5064990;28;20432;-76
2022/10/29 00:08:30;;;;;;;10.95;8.07;;;17.70;84.70;;;;;;5062263;28;20454;-76
2022/10/29 00:11:05;;;;;;;10.88;7.75;;;17.70;84.40;;;;;;5063138;28;20759;-74
2022/10/29 00:13:31;;;;;;;10.80;7.80;;;17.60;84.70;;;;;;5067845;28;20532;-76
2022/10/29 00:15:58;;;;;;;11.57;7.55;;;17.60;85.10;;;;;;5055163;28;20429;-76
2022/10/29 00:18:25;;;;;;;11.10;7.25;;;17.60;85.60;;;;;;5063587;28;20419;-76
2022/10/29 00:21:01;;;;;;;11.23;7.40;;;17.60;85.80;;;;;;5063207;28;20435;-75
2022/10/29 00:23:28;;;;;;;9.63;7.30;;;17.60;85.90;;;;;;5063406;28;20415;-76
2022/10/29 00:25:56;;;;;;;13.03;7.53;;;17.60;86.20;;;;;;5063722;28;20988;-76
2022/10/29 00:28:23;;;;;;;10.20;7.85;;;17.60;86.20;;;;;;5063563;28;20432;-77
2022/10/29 00:30:50;;;;;;;12.68;6.80;;;17.50;86.50;;;;;;5058537;28;20800;-76
2022/10/29 00:33:19;;;;;;;10.90;7.30;;;17.50;86.40;;;;;;5061286;28;20442;-76
2022/10/29 00:35:55;;;;;;;10.95;7.03;;;17.50;86.10;;;;;;5065049;28;20442;-76
2022/10/29 00:38:23;;;;;;;10.30;7.28;;;17.50;86.40;;;;;;5063516;28;20455;-76
2022/10/29 00:40:50;;;;;;;9.55;7.60;;;17.50;86.20;;;;;;5077093;28;20529;-75
2022/10/29 00:43:20;;;;;;;10.75;7.40;;;17.40;86.50;;;;;;5063211;28;20549;-77
2022/10/29 00:45:51;;;;;;;11.25;7.65;;;17.40;86.80;;;;;;5055291;28;20411;-77
2022/10/29 00:48:18;;;;;;;12.68;6.90;;;17.40;86.80;;;;;;5062788;28;20424;-76
2022/10/29 00:50:47;;;;;;;12.30;7.20;;;17.40;86.70;;;;;;5065617;28;20446;-76
2022/10/29 00:53:16;;;;;;;12.68;7.43;;;17.30;86.30;;;;;;5069615;28;21064;-77
2022/10/29 00:55:44;;;;;;;11.90;7.40;;;17.30;86.70;;;;;;5069191;28;20423;-76
2022/10/29 00:58:11;;;;;;;12.15;7.32;;;17.30;86.90;;;;;;5076799;28;20441;-76
2022/10/29 01:00:38;;;;;;;10.00;6.95;;;17.30;87.00;;;;;;5063027;28;20434;-76
2022/10/29 01:03:06;;;;;;;11.85;7.30;;;17.30;86.70;;;;;;5062990;28;20427;-77
2022/10/29 01:05:35;;;;;;;10.25;7.32;;;17.30;87.10;;;;;;5063707;28;20774;-76
2022/10/29 01:08:02;;;;;;;9.75;7.07;;;17.30;87.20;;;;;;5062819;28;20430;-77
2022/10/29 01:10:38;;;;;;;11.38;8.10;;;17.20;87.10;;;;;;5070284;28;20438;-76
2022/10/29 01:13:19;;;;;;;10.90;6.95;;;17.20;87.90;;;;;;5061424;28;20441;-77
2022/10/29 01:15:56;;;;;;;9.25;7.55;;;17.10;87.70;;;;;;5062523;28;20436;-75
2022/10/29 01:18:28;;;;;;;15.35;8.13;;;17.10;88.00;;;;;;5061870;28;20435;-75
2022/10/29 01:21:22;;;;;;;11.57;7.43;;;17.10;88.20;;;;;;5067350;28;20415;-76
2022/10/29 01:24:29;;;;;;;11.20;7.50;;;17.10;88.40;;;;;;5056027;28;20415;-76
2022/10/29 01:27:32;;;;;;;12.40;8.10;;;17.00;88.40;;;;;;5059657;28;20461;-76
2022/10/29 01:30:10;;;;;;;11.27;7.93;;;17.00;88.80;;;;;;5063691;28;20408;-75
2022/10/29 01:32:51;;;;;;;12.60;8.20;;;17.00;88.70;;;;;;5065067;28;20423;-76
2022/10/29 01:35:28;;;;;;;9.68;7.60;;;17.00;89.20;;;;;;5066559;28;20979;-75
2022/10/29 01:38:06;;;;;;;13.60;7.78;;;17.00;89.00;;;;;;5052938;28;20432;-77
2022/10/29 01:40:37;;;;;;;12.88;8.20;;;17.00;88.80;;;;;;5065638;28;20448;-76
2022/10/29 01:43:11;;;;;;;11.98;7.55;;;17.00;88.70;;;;;;5063443;28;20439;-75
2022/10/29 01:45:44;;;;;;;13.93;8.00;;;16.90;88.90;;;;;;5064077;28;20711;-76
2022/10/29 01:48:17;;;;;;;12.35;7.30;;;16.90;89.10;;;;;;5061032;28;20433;-76
2022/10/29 01:50:49;;;;;;;13.05;8.50;;;16.80;89.70;;;;;;5061239;28;20445;-76
2022/10/29 01:53:17;;;;;;;10.20;7.80;;;16.80;89.60;;;;;;5057388;28;20460;-76
2022/10/29 01:55:43;;;;;;;11.45;7.43;;;16.80;89.70;;;;;;5061038;28;20423;-75
2022/10/29 01:58:12;;;;;;;10.52;7.53;;;16.80;89.60;;;;;;5071018;28;20780;-77
2022/10/29 02:00:49;;;;;;;12.90;7.88;;;16.80;89.80;;;;;;5071398;28;20916;-76
2022/10/29 02:03:30;;;;;;;11.82;8.30;;;16.80;90.00;;;;;;5065416;28;20523;-76
2022/10/29 02:06:03;;;;;;;8.93;7.20;;;16.80;90.00;;;;;;5064566;28;20446;-75
2022/10/29 02:08:37;;;;;;;10.27;7.70;;;16.80;89.90;;;;;;5064345;28;20487;-76
2022/10/29 02:11:11;;;;;;;9.40;7.72;;;16.70;89.90;;;;;;5062243;28;20431;-76
2022/10/29 02:13:44;;;;;;;10.17;6.90;;;16.70;90.00;;;;;;5058851;28;20507;-75
2022/10/29 02:16:13;;;;;;;14.70;7.20;;;16.60;90.10;;;;;;5064030;28;20430;-75
2022/10/29 02:18:43;;;;;;;12.32;7.20;;;16.60;90.10;;;;;;5069518;28;20545;-76
2022/10/29 02:21:10;;;;;;;10.65;6.90;;;16.60;90.10;;;;;;5065833;28;20411;-75
2022/10/29 02:23:37;;;;;;;11.27;7.72;;;16.60;90.20;;;;;;5064582;28;20427;-76
2022/10/29 02:26:04;;;;;;;12.48;7.50;;;16.60;90.30;;;;;;5065032;28;20439;-75
2022/10/29 02:28:30;;;;;;;8.88;6.95;;;16.50;90.40;;;;;;5062205;28;20431;-75
2022/10/29 02:30:57;;;;;;;10.40;6.80;;;16.50;90.50;;;;;;5064273;28;20411;-76
2022/10/29 02:33:24;;;;;;;12.40;7.83;;;16.50;90.50;;;;;;5069103;28;20430;-75
2022/10/29 02:35:52;;;;;;;8.87;6.97;;;16.50;90.60;;;;;;5053958;28;20488;-75
2022/10/29 02:38:19;;;;;;;13.45;7.20;;;16.40;90.70;;;;;;5060633;28;20430;-75
2022/10/29 02:40:45;;;;;;;11.65;7.70;;;16.40;90.70;;;;;;5062250;28;20430;-76
2022/10/29 02:43:12;;;;;;;12.77;7.22;;;16.40;90.70;;;;;;5062686;28;20920;-75
2022/10/29 02:45:39;;;;;;;10.05;7.82;;;16.40;90.60;;;;;;5053377;28;20416;-76
2022/10/29 02:48:06;;;;;;;14.27;7.97;;;16.30;90.90;;;;;;5065098;28;20446;-75
2022/10/29 02:50:33;;;;;;;11.02;7.30;;;16.20;90.90;;;;;;5067113;28;20529;-77
2022/10/29 02:53:01;;;;;;;14.02;7.15;;;16.20;91.20;;;;;;5055297;28;20428;-75
2022/10/29 02:55:28;;;;;;;10.43;7.38;;;16.10;91.30;;;;;;5064047;28;20438;-76
2022/10/29 02:57:54;;;;;;;11.43;7.60;;;16.10;91.40;;;;;;5065244;28;20861;-75
2022/10/29 03:00:21;;;;;;;11.68;7.95;;;16.00;91.60;;;;;;5062645;28;20435;-76
2022/10/29 03:02:51;;;;;;;10.52;7.30;;;16.00;91.70;;;;;;5064230;28;20427;-76
2022/10/29 03:05:18;;;;;;;10.70;7.38;;;16.00;91.70;;;;;;5063774;28;20434;-77
2022/10/29 03:07:44;;;;;;;11.27;8.30;;;16.00;91.80;;;;;;5064497;28;20422;-78
2022/10/29 03:10:13;;;;;;;12.23;7.60;;;16.00;91.90;;;;;;5063183;28;20415;-76
2022/10/29 03:12:39;;;;;;;12.77;7.70;;;15.90;91.80;;;;;;5056049;28;20500;-77
2022/10/29 03:15:07;;;;;;;11.18;7.70;;;15.90;91.80;;;;;;5062871;28;20419;-77
2022/10/29 03:17:34;;;;;;;13.77;7.75;;;15.90;92.00;;;;;;5064101;28;20439;-77
2022/10/29 03:20:00;;;;;;;12.55;7.55;;;15.90;92.00;;;;;;5064183;28;20427;-77
2022/10/29 03:22:27;;;;;;;10.73;7.55;;;15.80;92.00;;;;;;5063939;28;20423;-77
2022/10/29 03:24:54;;;;;;;12.27;7.80;;;15.80;92.30;;;;;;5059144;28;20431;-77
2022/10/29 03:27:22;;;;;;;14.13;8.32;;;15.80;92.30;;;;;;5062275;28;20427;-77
2022/10/29 03:29:49;;;;;;;13.05;7.60;;;15.70;92.30;;;;;;5064528;28;20430;-77
2022/10/29 03:32:15;;;;;;;10.65;7.40;;;15.70;92.20;;;;;;5064054;28;20419;-74
2022/10/29 03:34:42;;;;;;;11.25;7.72;;;15.60;92.30;;;;;;5064027;28;20411;-74
2022/10/29 03:37:09;;;;;;;10.40;7.65;;;15.60;92.40;;;;;;5063486;28;20431;-77
2022/10/29 03:39:36;;;;;;;8.48;7.57;;;15.60;92.50;;;;;;5063007;28;20537;-76
2022/10/29 03:42:03;;;;;;;15.63;8.30;;;15.60;92.60;;;;;;5063134;28;20536;-75
2022/10/29 03:44:31;;;;;;;11.55;7.22;;;15.60;92.70;;;;;;5063278;28;20495;-75
2022/10/29 03:46:58;;;;;;;9.75;7.60;;;15.60;92.50;;;;;;5062993;28;20548;-74
2022/10/29 03:49:25;;;;;;;10.23;7.40;;;15.60;92.70;;;;;;5063049;28;20838;-75
2022/10/29 03:51:51;;;;;;;11.00;7.20;;;15.60;92.30;;;;;;5061909;28;20427;-75
2022/10/29 03:54:18;;;;;;;14.55;7.40;;;15.60;92.10;;;;;;5063694;28;20424;-75
2022/10/29 03:56:45;;;;;;;11.00;7.60;;;15.60;92.20;;;;;;5062640;28;21074;-77
2022/10/29 03:59:12;;;;;;;11.45;7.30;;;15.60;92.20;;;;;;5069502;28;20429;-74
2022/10/29 04:01:40;;;;;;;13.38;7.53;;;15.70;92.10;;;;;;5093725;22;20413;-75
2022/10/29 04:04:07;;;;;;;10.30;7.50;;;15.60;92.10;;;;;;5100481;28;20436;-74
2022/10/29 04:06:33;;;;;;;12.25;7.20;;;15.60;92.10;;;;;;5114342;28;20792;-75
2022/10/29 04:09:00;;;;;;;12.35;8.80;;;15.60;92.20;;;;;;5117932;28;20431;-75
2022/10/29 04:11:27;;;;;;;12.65;8.23;;;15.60;92.30;;;;;;5107799;28;20426;-75
2022/10/29 04:13:54;;;;;;;14.45;7.95;;;15.60;92.30;;;;;;5107898;28;20435;-74
2022/10/29 04:16:21;;;;;;;11.07;7.63;;;15.60;92.20;;;;;;5108150;28;20421;-75
2022/10/29 04:18:49;;;;;;;13.70;7.80;;;15.60;92.30;;;;;;5108741;28;20447;-74
2022/10/29 04:21:16;;;;;;;10.40;7.85;;;15.60;92.20;;;;;;5132113;28;20457;-76
2022/10/29 04:23:43;;;;;;;13.40;8.45;;;15.60;92.30;;;;;;5114997;28;20436;-76
2022/10/29 04:26:10;;;;;;;11.85;8.30;;;15.60;92.30;;;;;;5106824;28;20432;-78
2022/10/29 04:28:37;;;;;;;10.85;7.53;;;15.60;92.40;;;;;;5108901;28;20428;-76
2022/10/29 04:31:05;;;;;;;12.57;8.25;;;15.60;92.30;;;;;;5106806;28;20431;-75
2022/10/29 04:33:31;;;;;;;10.23;7.72;;;15.60;92.30;;;;;;5106207;28;20455;-76
2022/10/29 04:36:00;;;;;;;12.37;8.10;;;15.60;92.40;;;;;;5106957;28;20432;-75
2022/10/29 04:38:26;;;;;;;9.43;7.40;;;15.60;92.40;;;;;;5100086;28;20976;-75
2022/10/29 04:40:53;;;;;;;11.52;8.23;;;15.60;92.40;;;;;;5119824;28;20457;-77
2022/10/29 04:43:20;;;;;;;12.95;7.53;;;15.60;92.30;;;;;;5150462;27;20402;-76
2022/10/29 04:45:51;;;;;;;11.90;7.88;;;15.60;92.40;;;;;;5145893;28;20420;-75
2022/10/29 04:48:18;;;;;;;14.88;7.70;;;15.60;92.30;;;;;;5139784;28;20397;-73
2022/10/29 04:50:44;;;;;;;10.60;7.00;;;15.60;92.30;;;;;;5118433;28;20410;-76
2022/10/29 04:53:13;;;;;;;11.65;7.60;;;15.60;92.30;;;;;;5107306;28;20419;-77
2022/10/29 04:55:39;;;;;;;11.93;6.60;;;15.60;92.50;;;;;;5120047;27;20416;-76
2022/10/29 04:58:07;;;;;;;11.30;7.40;;;15.60;92.70;;;;;;5119460;27;20443;-75
2022/10/29 05:00:34;;;;;;;11.68;7.00;;;15.60;92.70;;;;;;5119555;27;20788;-75
2022/10/29 05:03:00;;;;;;;10.85;8.05;;;15.60;92.70;;;;;;5148044;27;20424;-76
2022/10/29 05:05:28;;;;;;;9.52;7.10;;;15.50;92.60;;;;;;5115825;27;20420;-73
2022/10/29 05:07:58;;;;;;;9.57;7.00;;;15.50;92.50;;;;;;5112077;27;20420;-73
2022/10/29 05:10:28;;;;;;;11.88;7.32;;;15.50;92.60;;;;;;5105399;28;20552;-77
2022/10/29 05:12:59;;;;;;;13.07;7.57;;;15.40;92.60;;;;;;5112534;27;20805;-76
2022/10/29 05:15:27;;;;;;;10.38;7.75;;;15.40;92.70;;;;;;5105783;27;20787;-76
2022/10/29 05:17:54;;;;;;;9.55;7.35;;;15.40;92.70;;;;;;5118248;27;20930;-77
2022/10/29 05:20:21;;;;;;;10.27;7.10;;;15.40;92.60;;;;;;5120938;27;20929;-74
2022/10/29 05:22:47;;;;;;;11.10;7.95;;;15.40;92.60;;;;;;5115061;27;20794;-76
2022/10/29 05:25:14;;;;;;;11.60;7.43;;;15.40;92.50;;;;;;5119284;27;20942;-77
2022/10/29 05:27:42;;;;;;;11.95;8.00;;;15.40;92.50;;;;;;5110151;28;20440;-76
2022/10/29 05:30:10;;;;;;;9.48;7.32;;;15.40;92.50;;;;;;5103959;27;20410;-77
2022/10/29 05:32:36;;;;;;;10.93;7.30;;;15.40;92.50;;;;;;5111144;27;20432;-64
2022/10/29 05:35:03;;;;;;;10.13;7.30;;;15.40;92.40;;;;;;5114376;27;20715;-66
2022/10/29 05:37:30;;;;;;;11.65;7.10;;;15.40;92.90;;;;;;5109687;28;20420;-64
2022/10/29 05:39:57;;;;;;;15.00;7.43;;;15.50;92.60;;;;;;5110373;28;20974;-66
2022/10/29 05:42:23;;;;;;;14.25;7.70;;;15.50;92.50;;;;;;5117983;27;20437;-65
2022/10/29 05:44:51;;;;;;;10.40;6.70;;;15.40;92.50;;;;;;5157356;27;20395;-64
2022/10/29 05:47:18;;;;;;;11.70;7.82;;;15.40;92.40;;;;;;5123424;27;20409;-65
2022/10/29 05:49:45;;;;;;;15.35;8.32;;;15.50;92.50;;;;;;5141496;27;20434;-66
2022/10/29 05:52:11;;;;;;;8.95;7.50;;;15.40;92.40;;;;;;5106329;27;20428;-65
2022/10/29 05:54:38;;;;;;;9.82;7.10;;;15.40;92.50;;;;;;5111595;28;20424;-66
2022/10/29 05:57:05;;;;;;;9.93;7.00;;;15.40;92.50;;;;;;5111489;27;20431;-65
2022/10/29 05:59:31;;;;;;;10.73;7.13;;;15.40;92.60;;;;;;5111010;28;20941;-64
2022/10/29 06:01:59;;;;;;;9.20;6.77;;;15.40;92.60;;;;;;5116709;27;20430;-64
2022/10/29 06:04:26;;;;;;;12.10;7.60;;;15.40;92.60;;;;;;5117880;27;20763;-65
2022/10/29 06:06:53;;;;;;;10.27;7.72;;;15.40;92.70;;;;;;5110793;27;20408;-64
2022/10/29 06:09:20;;;;;;;8.80;7.43;;;15.40;92.60;;;;;;5110235;27;20424;-64
2022/10/29 06:11:46;;;;;;;11.43;7.30;;;15.40;92.50;;;;;;5107772;28;20427;-64
2022/10/29 06:14:13;;;;;;;10.20;7.03;;;15.40;92.30;;;;;;5109956;28;20430;-66
2022/10/29 06:16:41;;;;;;;10.77;7.57;;;15.40;92.20;;;;;;5111059;28;20419;-65
2022/10/29 06:19:09;;;;;;;12.40;7.70;;;15.50;92.30;;;;;;5110451;28;20420;-64
2022/10/29 06:21:36;;;;;;;12.13;7.88;;;15.50;92.30;;;;;;5110875;28;20507;-65
2022/10/29 06:24:03;;;;;;;11.15;7.57;;;15.50;92.20;;;;;;5109527;28;20936;-66
2022/10/29 06:26:30;;;;;;;9.13;7.18;;;15.50;92.00;;;;;;5111154;28;20435;-65
2022/10/29 06:28:56;;;;;;;13.27;7.57;;;15.40;92.10;;;;;;5128643;28;20410;-65
2022/10/29 06:31:23;;;;;;;12.57;7.35;;;15.40;92.10;;;;;;5122733;28;20424;-64
2022/10/29 06:33:50;;;;;;;11.32;6.97;;;15.40;92.10;;;;;;5117059;28;20412;-66
2022/10/29 06:36:18;;;;;;;10.45;7.40;;;15.40;92.20;;;;;;5110113;28;20897;-66
2022/10/29 06:38:44;;;;;;;10.07;7.70;;;15.40;92.30;;;;;;5099108;27;20436;-65
2022/10/29 06:41:11;;;;;;;11.85;8.20;;;15.40;92.40;;;;;;5109075;27;20961;-64
2022/10/29 06:43:38;;;;;;;12.35;7.35;;;15.40;92.40;;;;;;5109990;27;20794;-65
2022/10/29 06:46:05;;;;;;;11.25;7.60;;;15.40;92.30;;;;;;5122133;27;20411;-64
2022/10/29 06:48:31;;;;;;;15.55;8.02;;;15.40;92.30;;;;;;5120405;27;20904;-65
2022/10/29 06:50:59;;;;;;;10.43;6.82;;;15.40;92.30;;;;;;5128070;27;20403;-65
2022/10/29 06:53:27;;;;;;;9.93;7.35;;;15.40;92.30;;;;;;5109512;28;20436;-65
2022/10/29 06:55:54;;;;;;;10.70;6.90;;;15.40;92.40;;;;;;5108188;27;20428;-64
2022/10/29 06:58:21;;;;;;;11.82;7.53;;;15.40;92.40;;;;;;5108459;27;20426;-65
2022/10/29 07:00:48;;;;;;;12.00;7.23;;;15.40;92.50;;;;;;5119413;27;20514;-64
2022/10/29 07:03:15;;;;;;;13.43;7.00;;;15.40;92.40;;;;;;5114077;27;20433;-64
2022/10/29 07:05:42;;;;;;;10.80;6.90;;;15.40;92.30;;;;;;5116415;27;20806;-65
2022/10/29 07:08:09;;;;;;;14.20;8.15;;;15.40;92.50;;;;;;5121076;27;20428;-65
2022/10/29 07:10:38;;;;;;;12.57;8.05;;;15.40;92.50;;;;;;5108793;27;20428;-65
2022/10/29 07:13:05;;;;;;;11.15;8.50;;;15.40;92.40;;;;;;5104029;27;20414;-64
2022/10/29 07:15:32;;;;;;;13.40;7.57;;;15.40;92.30;;;;;;5122007;27;20430;-65
2022/10/29 07:18:01;;;;;;;11.10;7.70;;;15.40;92.40;;;;;;5109908;27;20428;-65
2022/10/29 07:20:29;;;;;;;10.98;8.02;;;15.40;92.50;;;;;;5116820;27;20797;-65
2022/10/29 07:22:58;;;;;;;10.73;7.05;;;15.50;92.40;;;;;;5110198;27;20408;-65
2022/10/29 07:25:25;;;;;;;8.75;6.97;;;15.50;92.10;;;;;;5121679;27;20428;-64
2022/10/29 07:27:53;;;;;;;10.30;7.13;;;15.60;92.10;;;;;;5110635;27;20419;-65
2022/10/29 07:30:22;;;;;;;10.50;7.53;;;15.60;92.00;;;;;;5119201;27;20402;-64
2022/10/29 07:32:49;;;;;;;12.63;7.40;;;15.60;91.90;;;;;;5115604;27;20868;-65
2022/10/29 07:35:16;;;;;;;14.68;6.90;;;15.60;91.80;;;;;;5119313;27;20414;-65
2022/10/29 07:37:43;;;;;;;12.88;7.22;;;15.70;91.70;;;;;;5111116;27;20427;-64
2022/10/29 07:40:11;;;;;;;11.32;6.55;;;15.70;91.70;;;;;;5123012;27;20431;-67
2022/10/29 07:42:37;;;;;;;12.23;7.33;;;15.70;91.60;;;;;;5124396;28;20408;-65
2022/10/29 07:45:07;;;;;;;10.83;6.80;;;15.80;91.40;;;;;;5142578;27;20481;-67
2022/10/29 07:47:33;;;;;;;12.38;7.55;;;15.80;91.40;;;;;;5134135;27;20404;-66
2022/10/29 07:50:00;;;;;;;10.30;6.80;;;15.90;91.20;;;;;;5132439;27;20399;-66
2022/10/29 07:52:27;;;;;;;10.00;6.50;;;15.90;91.00;;;;;;5129425;28;20424;-67
2022/10/29 07:54:54;;;;;;;9.02;6.75;;;16.00;91.10;;;;;;5131630;28;20422;-66
2022/10/29 07:57:21;;;;;;;13.40;7.30;;;16.00;90.70;;;;;;5117929;28;20925;-65
2022/10/29 07:59:49;;;;;;;14.90;7.07;;;16.10;90.70;;;;;;5115787;27;20424;-66
2022/10/29 08:02:17;;;;;;;11.18;6.50;;;16.10;90.40;;;;;;5111665;28;20415;-64
2022/10/29 08:04:43;;;;;;;10.93;6.50;;;16.10;90.40;;;;;;5122001;27;20427;-64
2022/10/29 08:07:10;;;;;;;10.20;6.97;;;16.20;90.40;;;;;;5105038;28;20418;-65
2022/10/29 08:09:37;;;;;;;11.27;6.90;;;16.20;90.40;;;;;;5120398;28;20412;-65
2022/10/29 08:12:05;;;;;;;13.13;6.68;;;16.30;90.30;;;;;;5110501;28;20427;-64
2022/10/29 08:14:32;;;;;;;11.27;6.68;;;16.40;90.10;;;;;;5118677;28;20415;-65
2022/10/29 08:16:59;;;;;;;12.48;6.40;;;16.40;89.70;;;;;;5125120;28;20437;-65
2022/10/29 08:19:28;;;;;;;8.63;6.82;;;16.40;90.00;;;;;;5111200;28;20435;-65
2022/10/29 08:21:55;;;;;;;9.33;6.97;;;16.50;89.40;;;;;;5107486;28;20783;-65
2022/10/29 08:24:22;;;;;;;9.68;6.93;;;16.40;89.30;;;;;;5122168;28;20433;-65
2022/10/29 08:26:50;;;;;;;10.07;6.47;;;16.50;89.50;;;;;;5109714;28;20451;-64
2022/10/29 08:29:17;;;;;;;13.05;6.85;;;16.50;89.30;;;;;;5113944;27;20423;-64
2022/10/29 08:31:43;;;;;;;10.05;6.20;;;16.50;89.10;;;;;;5112434;28;20408;-63
2022/10/29 08:34:10;;;;;;;11.73;6.50;;;16.50;88.90;;;;;;5127054;27;20947;-64
2022/10/29 08:36:38;;;;;;;11.70;7.37;;;16.60;88.80;;;;;;5123084;27;20529;-64
2022/10/29 08:39:05;;;;;;;11.65;6.80;;;16.60;88.50;;;;;;5126372;27;20905;-65
2022/10/29 08:41:40;;;;;;;11.98;5.93;;;16.70;88.40;;;;;;5131175;27;20422;-65
2022/10/29 08:44:31;;;;;;;11.85;6.75;;;16.70;88.10;;;;;;5115711;27;20402;-65
2022/10/29 08:47:07;;;;;;;12.10;6.55;;;16.80;87.60;;;;;;5097817;27;20433;-66
2022/10/29 08:49:40;;;;;;;10.03;5.90;;;16.80;87.80;;;;;;5109222;28;20412;-66
2022/10/29 08:52:12;;;;;;;12.20;6.47;;;16.80;87.40;;;;;;5114607;27;20442;-66
2022/10/29 08:54:42;;;;;;;10.05;6.00;;;16.90;87.00;;;;;;5117095;27;20424;-65
2022/10/29 08:57:15;;;;;;;7.78;5.63;;;16.90;87.20;;;;;;5123398;27;20903;-66
2022/10/29 08:59:49;;;;;;;9.40;5.95;;;17.00;86.70;;;;;;5116290;27;20443;-65
2022/10/29 09:02:17;;;;;;;8.65;5.75;;;17.00;86.60;;;;;;5111243;27;20829;-65
2022/10/29 09:04:44;;;;;;;10.63;6.50;;;17.00;86.50;;;;;;5114360;27;20766;-66
2022/10/29 09:07:32;;;;;;;9.50;6.18;;;17.10;86.60;;;;;;5117210;27;20451;-65
2022/10/29 09:10:08;;;;;;;9.18;6.10;;;17.10;86.00;;;;;;5111465;28;20404;-64
2022/10/29 09:12:49;;;;;;;9.20;6.22;;;17.20;85.50;;;;;;5112388;28;20895;-65
2022/10/29 09:15:31;;;;;;;12.20;5.90;;;17.30;85.00;;;;;;5110935;27;20910;-67
2022/10/29 09:18:14;;;;;;;14.38;6.10;;;17.40;85.30;;;;;;5111424;28;20822;-65
2022/10/29 09:20:51;;;;;;;14.50;6.50;;;17.60;84.30;;;;;;5112265;28;20430;-65
2022/10/29 09:23:28;;;;;;;7.68;6.00;;;17.70;83.70;;;;;;5109439;27;20442;-65
2022/10/29 09:26:01;;;;;;;10.40;6.40;;;18.00;82.50;;;;;;5111685;28;20428;-65
2022/10/29 09:28:36;;;;;;;8.27;5.82;;;18.30;81.30;;;;;;5125729;27;20413;-65
2022/10/29 09:31:11;;;;;;;8.68;6.00;;;18.40;80.20;;;;;;5110750;28;20424;-66
2022/10/29 09:33:39;;;;;;;9.40;5.82;;;18.60;79.70;;;;;;5113461;27;20878;-66
2022/10/29 09:36:14;;;;;;;8.63;6.70;;;18.60;79.60;;;;;;5142348;27;20472;-65
2022/10/29 09:38:51;;;;;;;12.88;6.35;;;18.70;79.50;;;;;;5134920;27;20412;-66
2022/10/29 09:41:20;;;;;;;9.52;6.00;;;18.70;79.30;;;;;;5122529;28;20430;-64
2022/10/29 09:43:54;;;;;;;11.43;5.70;;;18.70;79.10;;;;;;5122688;27;20418;-65
2022/10/29 09:46:26;;;;;;;10.75;5.40;;;18.70;79.30;;;;;;5120150;27;20521;-65
2022/10/29 09:49:02;;;;;;;9.48;5.55;;;18.80;78.30;;;;;;5113328;28;20925;-65
2022/10/29 09:51:38;;;;;;;10.30;5.97;;;18.80;78.60;;;;;;5111337;28;20415;-64
2022/10/29 09:54:06;;;;;;;11.55;5.60;;;18.80;78.90;;;;;;5119366;28;20452;-65
2022/10/29 09:56:33;;;;;;;7.90;5.10;;;18.90;78.70;;;;;;5136661;27;20424;-66
2022/10/29 09:59:21;;;;;;;8.90;5.35;;;19.00;78.40;;;;;;5132751;28;20412;-64
2022/10/29 10:01:48;;;;;;;10.13;5.50;;;19.00;77.70;;;;;;5113473;28;20416;-64
2022/10/29 10:04:22;;;;;;;14.13;5.70;;;19.00;77.40;;;;;;5109503;27;20436;-65
2022/10/29 10:07:04;;;;;;;10.27;5.45;;;19.00;77.40;;;;;;5116067;27;20435;-66
2022/10/29 10:09:51;;;;;;;9.30;5.03;;;19.20;76.90;;;;;;5110466;27;20437;-65
2022/10/29 10:12:19;;;;;;;10.27;4.90;;;19.30;76.10;;;;;;5123126;27;20915;-66
2022/10/29 10:14:47;;;;;;;10.65;5.00;;;19.40;75.40;;;;;;5124952;27;20404;-65
2022/10/29 10:17:14;;;;;;;10.95;5.40;;;19.50;74.70;;;;;;5110878;27;20451;-65
2022/10/29 10:19:44;;;;;;;10.38;5.43;;;19.50;74.50;;;;;;5100862;28;20456;-66
2022/10/29 10:22:19;;;;;;;10.17;5.60;;;19.50;74.70;;;;;;5103866;27;20432;-65
2022/10/29 10:24:48;;;;;;;9.80;5.70;;;19.50;74.70;;;;;;5117921;28;20428;-65
2022/10/29 10:27:27;;;;;;;8.40;4.65;;;19.60;73.60;;;;;;5145666;27;20422;-66
2022/10/29 10:30:14;;;;;;;10.40;5.32;;;19.70;73.50;;;;;;5120959;27;20516;-65
2022/10/29 10:32:40;;;;;;;8.63;5.07;;;19.80;73.20;;;;;;5109746;28;20434;-65
2022/10/29 10:35:26;;;;;;;11.18;5.40;;;19.90;72.70;;;;;;5110188;27;20427;-65
2022/10/29 10:37:53;;;;;;;9.93;5.18;;;19.90;71.70;;;;;;5110794;27;20424;-65
2022/10/29 10:40:24;;;;;;;12.20;5.85;;;19.90;71.70;;;;;;5114977;27;20421;-66
2022/10/29 10:42:53;;;;;;;9.73;5.13;;;19.90;71.60;;;;;;5126299;27;20402;-66
2022/10/29 10:45:26;;;;;;;11.35;5.00;;;19.90;71.70;;;;;;5123120;27;20422;-66
2022/10/29 10:47:57;;;;;;;9.95;5.10;;;19.90;71.40;;;;;;5115985;27;20428;-65
2022/10/29 10:50:27;;;;;;;8.57;5.07;;;19.80;72.50;;;;;;5111255;28;20765;-65
2022/10/29 10:52:55;;;;;;;8.77;5.10;;;19.80;72.40;;;;;;5107996;28;20454;-65
2022/10/29 10:55:27;;;;;;;10.70;5.25;;;19.70;72.70;;;;;;5109146;28;20424;-66
2022/10/29 10:58:02;;;;;;;8.60;4.78;;;19.70;72.80;;;;;;5107312;28;20420;-65
2022/10/29 11:00:34;;;;;;;10.23;5.10;;;19.70;72.80;;;;;;5110261;28;20439;-66
2022/10/29 11:03:10;;;;;;;9.13;5.60;;;19.70;72.90;;;;;;5111273;27;20434;-65
2022/10/29 11:05:40;;;;;;;9.20;5.40;;;19.70;73.00;;;;;;5119602;27;20410;-65
2022/10/29 11:08:15;;;;;;;8.65;5.20;;;19.70;73.40;;;;;;5118409;27;20438;-65
2022/10/29 11:10:50;;;;;;;12.13;5.32;;;19.70;73.30;;;;;;5104405;28;20798;-66
2022/10/29 11:13:30;;;;;;;9.50;5.20;;;19.70;73.50;;;;;;5076753;28;20874;-65
2022/10/29 11:16:01;;;;;;;12.30;5.35;;;19.70;73.40;;;;;;5052963;28;20891;-65
2022/10/29 11:18:34;;;;;;;7.63;5.07;;;19.70;73.30;;;;;;5055610;28;20788;-66
2022/10/29 11:21:11;;;;;;;8.65;5.40;;;19.80;73.00;;;;;;5057687;28;20433;-66
2022/10/29 11:23:48;;;;;;;9.52;5.45;;;19.80;73.10;;;;;;5108142;22;20776;-66
2022/10/29 11:26:19;;;;;;;9.15;5.30;;;19.90;72.60;;;;;;5099674;28;20433;-66
2022/10/29 11:28:55;;;;;;;8.27;5.10;;;20.00;72.80;;;;;;5097355;28;20421;-66
2022/10/29 11:31:26;;;;;;;9.63;5.75;;;20.10;72.10;;;;;;5093953;28;20436;-66
2022/10/29 11:34:01;;;;;;;10.90;5.40;;;20.30;71.40;;;;;;5099567;28;20448;-67
2022/10/29 11:36:32;;;;;;;8.80;4.95;;;20.60;70.50;;;;;;5092419;28;20416;-64
2022/10/29 11:39:04;;;;;;;6.63;4.63;;;20.80;69.50;;;;;;5100677;28;20433;-67
2022/10/29 11:41:40;;;;;;;9.90;5.10;;;21.10;68.70;;;;;;5101539;28;20405;-66
2022/10/29 11:44:12;;;;;;;7.95;4.70;;;21.20;67.70;;;;;;5089090;28;20519;-65
2022/10/29 11:46:48;;;;;;;10.30;5.40;;;21.20;67.10;;;;;;5101059;28;20413;-67
2022/10/29 11:49:30;;;;;;;7.90;4.82;;;21.30;67.20;;;;;;5100662;28;20436;-67
2022/10/29 11:52:05;;;;;;;8.50;4.60;;;21.40;66.80;;;;;;5100414;28;20435;-65
2022/10/29 11:54:47;;;;;;;7.93;4.55;;;21.70;65.80;;;;;;5094824;28;20499;-65
2022/10/29 11:57:19;;;;;;;8.90;4.80;;;21.80;65.00;;;;;;5098840;28;20756;-66
2022/10/29 12:00:03;;;;;;;8.02;4.88;;;21.80;64.90;;;;;;5100229;28;21059;-67
2022/10/29 12:02:43;;;;;;;9.23;4.95;;;21.70;65.30;;;;;;5100613;28;20405;-66
2022/10/29 12:05:17;;;;;;;7.63;4.77;;;21.70;65.30;;;;;;5088464;28;20484;-66
2022/10/29 12:08:03;;;;;;;11.10;5.25;;;21.70;65.10;;;;;;5099658;28;20462;-66
2022/10/29 12:10:43;;;;;;;9.13;4.78;;;21.90;64.60;;;;;;5094383;28;20417;-64
2022/10/29 12:13:17;;;;;;;8.98;4.80;;;21.90;64.90;;;;;;5089007;28;20906;-66
2022/10/29 12:15:53;;;;;;;7.97;4.50;;;22.00;64.20;;;;;;5098896;28;20432;-67
2022/10/29 12:18:29;;;;;;;8.05;4.82;;;22.10;63.90;;;;;;5099409;28;20425;-67
2022/10/29 12:21:05;;;;;;;11.38;5.07;;;22.30;63.50;;;;;;5100255;28;20517;-67
2022/10/29 12:23:41;;;;;;;8.50;4.70;;;22.30;63.10;;;;;;5084876;28;20861;-67
2022/10/29 12:26:14;;;;;;;8.35;4.40;;;22.50;61.90;;;;;;5084874;28;20448;-67
2022/10/29 12:28:49;;;;;;;10.18;4.70;;;22.50;62.20;;;;;;5081049;28;20440;-66
2022/10/29 12:31:26;;;;;;;6.45;4.90;;;22.50;61.90;;;;;;5076738;28;20423;-66
2022/10/29 12:34:01;;;;;;;7.90;4.63;;;22.50;62.30;;;;;;5080778;28;20417;-67
2022/10/29 12:36:36;;;;;;;9.68;4.70;;;22.50;62.10;;;;;;5076983;28;20430;-67
2022/10/29 12:39:06;;;;;;;7.53;5.00;;;22.70;61.30;;;;;;5085699;28;20433;-68
2022/10/29 12:41:37;;;;;;;7.95;4.68;;;22.80;60.60;;;;;;5086169;28;20792;-67
2022/10/29 12:44:09;;;;;;;6.73;4.57;;;22.60;61.10;;;;;;5085913;28;20481;-67
2022/10/29 12:46:42;;;;;;;8.52;4.95;;;22.50;61.40;;;;;;5079267;28;20480;-67
2022/10/29 12:49:17;;;;;;;6.45;4.47;;;22.30;62.10;;;;;;5083585;28;20917;-67
2022/10/29 12:51:50;;;;;;;11.45;4.63;;;22.20;62.30;;;;;;5081524;28;20463;-66
2022/10/29 12:54:29;;;;;;;7.72;5.05;;;22.00;62.70;;;;;;5078491;28;20433;-66
2022/10/29 12:57:02;;;;;;;9.90;5.50;;;21.90;62.70;;;;;;5083394;28;20425;-67